West Palm Beach, FL

11:58 AM EDT on April 21, 2015 (GMT -0400)
Solid Waste Authority | | Change Station
CLOSE
Current Station
Personal Weather Station
Location: West Palm Beach, FL
Elevation: 60 ft
Nearby Weather Stations

Elev 60 ft 26.79 °N, 80.14 °W | Updated 3 minutes ago

Mostly Cloudy
Mostly Cloudy
78.3 °F
Feels Like 81 °F
N
3.0
Wind Variable Wind from SW
Gusts 7.0 mph

Today
High -- | Low -- °F
--% Chance of Precip.
Yesterday
High -- | Low -- °F
Precip. -- in
6:51 AM 7:47 PM
Waxing Crescent, 11% visible
Pressure 30.01 in
Visibility 10.0 miles
Clouds Few 3300 ft
Mostly Cloudy 6000 ft
Mostly Cloudy 13000 ft
Heat Index 81 °F
Dew Point 74 °F
Humidity 86%
Rainfall 0.23 in
Snow Depth Not available.
UV 7 out of 12
Pollen 3.60 out of 12
Air Quality Not available.
Flu Activity Local Activity
METAR KPBI 211553Z 21007KT 10SM FEW033 BKN060 BKN130 26/22 A3001 RMK AO2 SLP163 T02610217

More Conditions Fewer Conditions

Pressure 30.01 in
Visibility 10.0 miles
Clouds Few 3300 ft
Mostly Cloudy 6000 ft
Mostly Cloudy 13000 ft
Heat Index 81 °F
Dew Point 74 °F
Humidity 86%
Rainfall 0.23 in
Snow Depth Not available.
UV 7 out of 12
Pollen 3.60 out of 12
Air Quality Not available.
Flu Activity Local Activity
METAR KPBI 211553Z 21007KT 10SM FEW033 BKN060 BKN130 26/22 A3001 RMK AO2 SLP163 T02610217

More Conditions Fewer Conditions

Nowcast | as of 7:52 am EDT on April 21, 2015

Showers, and possibly some thunderstorms, will continue to develop and move across South Florida generally from the west to the east at around 20 miles per hour. Rainfall amount of up to an inch and a half, with local amounts up 3 inches will be possible in an hour. This activity is expected to continue through the day as a cold front approaches the area.

×

10-Day Weather Forecast

Almanac

Astronomy

Apr. 21, 2015 Rise Set
Actual Time
Civil Twilight
Nautical Twilight
Astronomical Twilight
Moon
Length of Visible Light
Length of Day
Tomorrow will be .
, % of the Moon is Illuminated

Today's Extremes

State Highs State Lows

Community

WunderPhotos

Upload Photos

1,815,428 photos uploaded!

WunderBlogs® & News

Nearby

Air Quality

  Air Quality AQ Index Pollutant
Not available.

Snow Depth

Station Depth Elevation

Earthquake Activity

City Distance Mag. Time & Date
Minimum magnitude displayed is 2.5.

Coastal Water Temperatures

Place Temperature

Stations

Nearby Weather Stations

Station Location Temp. Windchill Dew Point Humidity Wind Precip. Elev Updated Type